sensor_id;sensor_type;location;lat;lon;timestamp;temperature;humidity
23550;DHT22;11953;49.010;8.608;2022-09-27T00:00:38;12.10;99.90
23550;DHT22;11953;49.010;8.608;2022-09-27T00:03:25;12.10;99.90
23550;DHT22;11953;49.010;8.608;2022-09-27T00:06:14;12.10;99.90
23550;DHT22;11953;49.010;8.608;2022-09-27T00:09:01;12.10;99.90
23550;DHT22;11953;49.010;8.608;2022-09-27T00:11:48;12.00;99.90
23550;DHT22;11953;49.010;8.608;2022-09-27T00:14:35;12.00;99.90
23550;DHT22;11953;49.010;8.608;2022-09-27T00:17:23;12.00;99.90
23550;DHT22;11953;49.010;8.608;2022-09-27T00:20:10;12.00;99.90
23550;DHT22;11953;49.010;8.608;2022-09-27T00:22:56;12.00;99.90
23550;DHT22;11953;49.010;8.608;2022-09-27T00:25:54;12.10;99.90
23550;DHT22;11953;49.010;8.608;2022-09-27T00:28:41;12.20;99.90
23550;DHT22;11953;49.010;8.608;2022-09-27T00:31:29;12.30;99.90
23550;DHT22;11953;49.010;8.608;2022-09-27T00:34:20;12.10;99.90
23550;DHT22;11953;49.010;8.608;2022-09-27T00:37:07;12.10;99.90
23550;DHT22;11953;49.010;8.608;2022-09-27T00:39:53;12.00;99.90
23550;DHT22;11953;49.010;8.608;2022-09-27T00:42:40;12.10;99.90
23550;DHT22;11953;49.010;8.608;2022-09-27T00:45:27;12.00;99.90
23550;DHT22;11953;49.010;8.608;2022-09-27T00:48:15;12.00;99.90
23550;DHT22;11953;49.010;8.608;2022-09-27T00:51:06;11.90;99.90
23550;DHT22;11953;49.010;8.608;2022-09-27T00:53:55;11.90;99.90
23550;DHT22;11953;49.010;8.608;2022-09-27T00:56:44;12.00;99.90
23550;DHT22;11953;49.010;8.608;2022-09-27T00:59:34;11.90;99.90
23550;DHT22;11953;49.010;8.608;2022-09-27T01:02:21;11.90;99.90
23550;DHT22;11953;49.010;8.608;2022-09-27T01:05:09;11.80;99.90
23550;DHT22;11953;49.010;8.608;2022-09-27T01:07:58;11.90;99.90
23550;DHT22;11953;49.010;8.608;2022-09-27T01:10:54;11.90;99.90
23550;DHT22;11953;49.010;8.608;2022-09-27T01:13:50;11.90;99.90
23550;DHT22;11953;49.010;8.608;2022-09-27T01:16:44;11.90;99.90
23550;DHT22;11953;49.010;8.608;2022-09-27T01:19:52;12.00;99.90
23550;DHT22;11953;49.010;8.608;2022-09-27T01:22:58;11.90;99.90
23550;DHT22;11953;49.010;8.608;2022-09-27T01:25:58;12.00;99.90
23550;DHT22;11953;49.010;8.608;2022-09-27T01:28:56;12.00;99.90
23550;DHT22;11953;49.010;8.608;2022-09-27T01:31:49;12.00;99.90
23550;DHT22;11953;49.010;8.608;2022-09-27T01:34:43;12.00;99.90
23550;DHT22;11953;49.010;8.608;2022-09-27T01:37:38;11.90;99.90
23550;DHT22;11953;49.010;8.608;2022-09-27T01:40:31;11.90;99.90
23550;DHT22;11953;49.010;8.608;2022-09-27T01:43:44;11.90;99.90
23550;DHT22;11953;49.010;8.608;2022-09-27T01:46:40;11.90;99.90
23550;DHT22;11953;49.010;8.608;2022-09-27T01:49:46;11.80;99.90
23550;DHT22;11953;49.010;8.608;2022-09-27T01:52:38;11.90;99.90
23550;DHT22;11953;49.010;8.608;2022-09-27T01:55:29;11.80;99.90
23550;DHT22;11953;49.010;8.608;2022-09-27T01:58:43;11.80;99.90
23550;DHT22;11953;49.010;8.608;2022-09-27T02:01:33;11.80;99.90
23550;DHT22;11953;49.010;8.608;2022-09-27T02:04:25;11.80;99.90
23550;DHT22;11953;49.010;8.608;2022-09-27T02:07:43;11.80;99.90
23550;DHT22;11953;49.010;8.608;2022-09-27T02:10:36;11.70;99.90
23550;DHT22;11953;49.010;8.608;2022-09-27T02:13:36;11.70;99.90
23550;DHT22;11953;49.010;8.608;2022-09-27T02:16:53;11.60;99.90
23550;DHT22;11953;49.010;8.608;2022-09-27T02:19:51;11.60;99.90
23550;DHT22;11953;49.010;8.608;2022-09-27T02:22:56;11.60;99.90
23550;DHT22;11953;49.010;8.608;2022-09-27T02:25:50;11.60;99.90
23550;DHT22;11953;49.010;8.608;2022-09-27T02:28:42;11.60;99.90
23550;DHT22;11953;49.010;8.608;2022-09-27T02:31:39;11.50;99.90
23550;DHT22;11953;49.010;8.608;2022-09-27T02:34:28;11.40;99.90
23550;DHT22;11953;49.010;8.608;2022-09-27T02:37:17;11.40;99.90
23550;DHT22;11953;49.010;8.608;2022-09-27T02:40:07;11.40;99.90
23550;DHT22;11953;49.010;8.608;2022-09-27T02:42:55;11.40;99.90
23550;DHT22;11953;49.010;8.608;2022-09-27T02:45:53;11.40;99.90
23550;DHT22;11953;49.010;8.608;2022-09-27T02:48:50;11.50;99.90
23550;DHT22;11953;49.010;8.608;2022-09-27T02:51:49;11.50;99.90
23550;DHT22;11953;49.010;8.608;2022-09-27T02:54:43;11.50;99.90
23550;DHT22;11953;49.010;8.608;2022-09-27T02:58:02;11.60;99.90
23550;DHT22;11953;49.010;8.608;2022-09-27T03:01:19;11.50;99.90
23550;DHT22;11953;49.010;8.608;2022-09-27T03:04:29;11.50;99.90
23550;DHT22;11953;49.010;8.608;2022-09-27T03:07:19;11.50;99.90
23550;DHT22;11953;49.010;8.608;2022-09-27T03:10:06;11.50;99.90
23550;DHT22;11953;49.010;8.608;2022-09-27T03:12:56;11.50;99.90
23550;DHT22;11953;49.010;8.608;2022-09-27T03:15:42;11.40;99.90
23550;DHT22;11953;49.010;8.608;2022-09-27T03:18:47;11.40;99.90
23550;DHT22;11953;49.010;8.608;2022-09-27T03:21:55;11.40;99.90
23550;DHT22;11953;49.010;8.608;2022-09-27T03:24:41;11.30;99.90
23550;DHT22;11953;49.010;8.608;2022-09-27T03:27:28;11.30;99.90
23550;DHT22;11953;49.010;8.608;2022-09-27T03:30:16;11.40;99.90
23550;DHT22;11953;49.010;8.608;2022-09-27T03:33:03;11.30;99.90
23550;DHT22;11953;49.010;8.608;2022-09-27T03:36:19;11.20;99.90
23550;DHT22;11953;49.010;8.608;2022-09-27T03:39:06;11.30;99.90
23550;DHT22;11953;49.010;8.608;2022-09-27T03:41:53;11.30;99.90
23550;DHT22;11953;49.010;8.608;2022-09-27T03:44:39;11.30;99.90
23550;DHT22;11953;49.010;8.608;2022-09-27T03:47:28;11.20;99.90
23550;DHT22;11953;49.010;8.608;2022-09-27T03:50:14;11.20;99.90
23550;DHT22;11953;49.010;8.608;2022-09-27T03:53:01;11.20;99.90
23550;DHT22;11953;49.010;8.608;2022-09-27T03:55:48;11.20;99.90
23550;DHT22;11953;49.010;8.608;2022-09-27T03:58:35;11.20;99.90
23550;DHT22;11953;49.010;8.608;2022-09-27T04:01:22;11.20;99.90
23550;DHT22;11953;49.010;8.608;2022-09-27T04:04:16;11.20;99.90
23550;DHT22;11953;49.010;8.608;2022-09-27T04:07:03;11.30;99.90
23550;DHT22;11953;49.010;8.608;2022-09-27T04:09:50;11.30;99.90
23550;DHT22;11953;49.010;8.608;2022-09-27T04:12:38;11.30;99.90
23550;DHT22;11953;49.010;8.608;2022-09-27T04:15:26;11.40;99.90
23550;DHT22;11953;49.010;8.608;2022-09-27T04:18:32;11.30;99.90
23550;DHT22;11953;49.010;8.608;2022-09-27T04:21:46;11.20;99.90
23550;DHT22;11953;49.010;8.608;2022-09-27T04:24:35;11.20;99.90
23550;DHT22;11953;49.010;8.608;2022-09-27T04:27:51;11.20;99.90
23550;DHT22;11953;49.010;8.608;2022-09-27T04:30:39;11.20;99.90
23550;DHT22;11953;49.010;8.608;2022-09-27T04:33:29;11.20;99.90
23550;DHT22;11953;49.010;8.608;2022-09-27T04:36:27;11.20;99.90
23550;DHT22;11953;49.010;8.608;2022-09-27T04:39:35;11.20;99.90
23550;DHT22;11953;49.010;8.608;2022-09-27T04:42:24;11.20;99.90
23550;DHT22;11953;49.010;8.608;2022-09-27T04:45:13;11.20;99.90
23550;DHT22;11953;49.010;8.608;2022-09-27T04:48:00;11.10;99.90
23550;DHT22;11953;49.010;8.608;2022-09-27T04:50:55;11.10;99.90
23550;DHT22;11953;49.010;8.608;2022-09-27T04:53:42;11.20;99.90
23550;DHT22;11953;49.010;8.608;2022-09-27T04:56:31;11.20;99.90
23550;DHT22;11953;49.010;8.608;2022-09-27T04:59:19;11.10;99.90
23550;DHT22;11953;49.010;8.608;2022-09-27T05:02:06;11.10;99.90
23550;DHT22;11953;49.010;8.608;2022-09-27T05:05:13;11.20;99.90
23550;DHT22;11953;49.010;8.608;2022-09-27T05:08:01;11.10;99.90
23550;DHT22;11953;49.010;8.608;2022-09-27T05:11:08;11.00;99.90
23550;DHT22;11953;49.010;8.608;2022-09-27T05:13:58;11.10;99.90
23550;DHT22;11953;49.010;8.608;2022-09-27T05:16:45;11.10;99.90
23550;DHT22;11953;49.010;8.608;2022-09-27T05:20:03;11.10;99.90
23550;DHT22;11953;49.010;8.608;2022-09-27T05:23:06;11.10;99.90
23550;DHT22;11953;49.010;8.608;2022-09-27T05:25:53;11.10;99.90
23550;DHT22;11953;49.010;8.608;2022-09-27T05:28:41;11.10;99.90
23550;DHT22;11953;49.010;8.608;2022-09-27T05:31:30;11.20;99.90
23550;DHT22;11953;49.010;8.608;2022-09-27T05:34:17;11.10;99.90
23550;DHT22;11953;49.010;8.608;2022-09-27T05:37:14;11.10;99.90
23550;DHT22;11953;49.010;8.608;2022-09-27T05:40:03;11.10;99.90
23550;DHT22;11953;49.010;8.608;2022-09-27T05:43:11;11.20;99.90
23550;DHT22;11953;49.010;8.608;2022-09-27T05:45:58;11.10;99.90
23550;DHT22;11953;49.010;8.608;2022-09-27T05:48:47;11.10;99.90
23550;DHT22;11953;49.010;8.608;2022-09-27T05:51:34;11.30;99.90
23550;DHT22;11953;49.010;8.608;2022-09-27T05:54:20;11.20;99.90
23550;DHT22;11953;49.010;8.608;2022-09-27T05:57:07;11.20;99.90
23550;DHT22;11953;49.010;8.608;2022-09-27T06:00:17;11.30;99.90
23550;DHT22;11953;49.010;8.608;2022-09-27T06:03:05;11.30;99.90
23550;DHT22;11953;49.010;8.608;2022-09-27T06:06:12;11.30;99.90
23550;DHT22;11953;49.010;8.608;2022-09-27T06:09:09;11.30;99.90
23550;DHT22;11953;49.010;8.608;2022-09-27T06:11:56;11.30;99.90
23550;DHT22;11953;49.010;8.608;2022-09-27T06:14:44;11.30;99.90
23550;DHT22;11953;49.010;8.608;2022-09-27T06:17:35;11.30;99.90
23550;DHT22;11953;49.010;8.608;2022-09-27T06:20:30;11.40;99.90
23550;DHT22;11953;49.010;8.608;2022-09-27T06:23:19;11.40;99.90
23550;DHT22;11953;49.010;8.608;2022-09-27T06:26:08;11.40;99.90
23550;DHT22;11953;49.010;8.608;2022-09-27T06:29:19;11.30;99.90
23550;DHT22;11953;49.010;8.608;2022-09-27T06:32:13;11.30;99.90
23550;DHT22;11953;49.010;8.608;2022-09-27T06:35:07;11.10;99.90
23550;DHT22;11953;49.010;8.608;2022-09-27T06:37:54;11.10;99.90
23550;DHT22;11953;49.010;8.608;2022-09-27T06:40:44;11.10;99.90
23550;DHT22;11953;49.010;8.608;2022-09-27T06:43:37;11.00;99.90
23550;DHT22;11953;49.010;8.608;2022-09-27T06:46:42;10.90;99.90
23550;DHT22;11953;49.010;8.608;2022-09-27T06:49:49;10.90;99.90
23550;DHT22;11953;49.010;8.608;2022-09-27T06:52:36;10.90;99.90
23550;DHT22;11953;49.010;8.608;2022-09-27T06:55:23;11.00;99.90
23550;DHT22;11953;49.010;8.608;2022-09-27T06:58:12;11.00;99.90
23550;DHT22;11953;49.010;8.608;2022-09-27T07:01:39;11.10;99.90
23550;DHT22;11953;49.010;8.608;2022-09-27T07:04:29;11.10;99.90
23550;DHT22;11953;49.010;8.608;2022-09-27T07:07:27;11.10;99.90
23550;DHT22;11953;49.010;8.608;2022-09-27T07:10:14;11.10;99.90
23550;DHT22;11953;49.010;8.608;2022-09-27T07:13:03;11.10;99.90
23550;DHT22;11953;49.010;8.608;2022-09-27T07:15:53;11.10;99.90
23550;DHT22;11953;49.010;8.608;2022-09-27T07:18:40;11.10;99.90
23550;DHT22;11953;49.010;8.608;2022-09-27T07:21:27;11.20;99.90
23550;DHT22;11953;49.010;8.608;2022-09-27T07:24:14;11.30;99.90
23550;DHT22;11953;49.010;8.608;2022-09-27T07:27:01;11.40;99.90
23550;DHT22;11953;49.010;8.608;2022-09-27T07:29:48;11.40;99.90
23550;DHT22;11953;49.010;8.608;2022-09-27T07:32:37;11.40;99.90
23550;DHT22;11953;49.010;8.608;2022-09-27T07:35:27;11.50;99.90
23550;DHT22;11953;49.010;8.608;2022-09-27T07:38:14;11.40;99.90
23550;DHT22;11953;49.010;8.608;2022-09-27T07:41:05;11.60;99.90
23550;DHT22;11953;49.010;8.608;2022-09-27T07:43:51;11.70;99.90
23550;DHT22;11953;49.010;8.608;2022-09-27T07:46:39;11.90;99.90
23550;DHT22;11953;49.010;8.608;2022-09-27T07:49:38;12.10;99.90
23550;DHT22;11953;49.010;8.608;2022-09-27T07:52:41;12.30;99.90
23550;DHT22;11953;49.010;8.608;2022-09-27T07:55:52;12.30;99.90
23550;DHT22;11953;49.010;8.608;2022-09-27T07:58:43;12.40;99.90
23550;DHT22;11953;49.010;8.608;2022-09-27T08:01:31;12.40;99.90
23550;DHT22;11953;49.010;8.608;2022-09-27T08:04:19;12.30;99.90
23550;DHT22;11953;49.010;8.608;2022-09-27T08:07:08;12.20;99.90
23550;DHT22;11953;49.010;8.608;2022-09-27T08:10:03;12.20;99.90
23550;DHT22;11953;49.010;8.608;2022-09-27T08:12:50;12.30;99.90
23550;DHT22;11953;49.010;8.608;2022-09-27T08:15:37;12.40;99.90
23550;DHT22;11953;49.010;8.608;2022-09-27T08:18:25;12.40;99.90
23550;DHT22;11953;49.010;8.608;2022-09-27T08:21:12;12.40;99.90
23550;DHT22;11953;49.010;8.608;2022-09-27T08:24:22;12.20;99.90
23550;DHT22;11953;49.010;8.608;2022-09-27T08:27:20;12.20;99.90
23550;DHT22;11953;49.010;8.608;2022-09-27T08:30:12;12.20;99.90
23550;DHT22;11953;49.010;8.608;2022-09-27T08:33:00;12.20;99.90
23550;DHT22;11953;49.010;8.608;2022-09-27T08:35:48;12.10;99.90
23550;DHT22;11953;49.010;8.608;2022-09-27T08:38:35;12.10;99.90
23550;DHT22;11953;49.010;8.608;2022-09-27T08:41:29;12.10;99.90
23550;DHT22;11953;49.010;8.608;2022-09-27T08:44:26;12.10;99.90
23550;DHT22;11953;49.010;8.608;2022-09-27T08:47:33;12.60;99.90
23550;DHT22;11953;49.010;8.608;2022-09-27T08:50:25;12.60;99.90
23550;DHT22;11953;49.010;8.608;2022-09-27T08:53:20;12.50;99.90
23550;DHT22;11953;49.010;8.608;2022-09-27T08:56:08;12.90;99.90
23550;DHT22;11953;49.010;8.608;2022-09-27T08:59:05;13.30;99.90
23550;DHT22;11953;49.010;8.608;2022-09-27T09:01:54;13.60;99.90
23550;DHT22;11953;49.010;8.608;2022-09-27T09:04:54;13.70;99.90
23550;DHT22;11953;49.010;8.608;2022-09-27T09:07:53;14.30;99.90
23550;DHT22;11953;49.010;8.608;2022-09-27T09:10:50;14.70;99.90
23550;DHT22;11953;49.010;8.608;2022-09-27T09:14:17;14.40;99.90
23550;DHT22;11953;49.010;8.608;2022-09-27T09:17:15;14.00;99.90
23550;DHT22;11953;49.010;8.608;2022-09-27T09:20:38;13.50;99.90
23550;DHT22;11953;49.010;8.608;2022-09-27T09:23:55;13.50;99.90
23550;DHT22;11953;49.010;8.608;2022-09-27T09:26:49;13.70;99.90
23550;DHT22;11953;49.010;8.608;2022-09-27T09:29:59;13.80;99.90
23550;DHT22;11953;49.010;8.608;2022-09-27T09:33:07;13.80;99.90
23550;DHT22;11953;49.010;8.608;2022-09-27T09:36:04;13.70;99.90
23550;DHT22;11953;49.010;8.608;2022-09-27T09:38:56;13.90;99.90
23550;DHT22;11953;49.010;8.608;2022-09-27T09:41:56;14.60;99.90
23550;DHT22;11953;49.010;8.608;2022-09-27T09:44:51;14.70;99.90
23550;DHT22;11953;49.010;8.608;2022-09-27T09:47:47;15.50;99.90
23550;DHT22;11953;49.010;8.608;2022-09-27T09:50:40;15.50;99.90
23550;DHT22;11953;49.010;8.608;2022-09-27T09:53:35;15.10;99.90
23550;DHT22;11953;49.010;8.608;2022-09-27T09:56:29;14.90;99.90
23550;DHT22;11953;49.010;8.608;2022-09-27T09:59:19;14.50;99.90
23550;DHT22;11953;49.010;8.608;2022-09-27T10:02:22;14.20;99.90
23550;DHT22;11953;49.010;8.608;2022-09-27T10:05:18;13.90;99.90
23550;DHT22;11953;49.010;8.608;2022-09-27T10:08:12;13.80;99.90
23550;DHT22;11953;49.010;8.608;2022-09-27T10:11:02;13.30;99.90
23550;DHT22;11953;49.010;8.608;2022-09-27T10:14:10;13.00;99.90
23550;DHT22;11953;49.010;8.608;2022-09-27T10:16:59;13.00;99.90
23550;DHT22;11953;49.010;8.608;2022-09-27T10:19:49;13.00;99.90
23550;DHT22;11953;49.010;8.608;2022-09-27T10:22:43;12.90;99.90
23550;DHT22;11953;49.010;8.608;2022-09-27T10:25:56;12.80;99.90
23550;DHT22;11953;49.010;8.608;2022-09-27T10:28:53;12.90;99.90
23550;DHT22;11953;49.010;8.608;2022-09-27T10:31:50;13.00;99.90
23550;DHT22;11953;49.010;8.608;2022-09-27T10:34:42;13.10;99.90
23550;DHT22;11953;49.010;8.608;2022-09-27T10:37:30;13.30;99.90
23550;DHT22;11953;49.010;8.608;2022-09-27T10:40:29;13.30;99.90
23550;DHT22;11953;49.010;8.608;2022-09-27T10:43:26;13.30;99.90
23550;DHT22;11953;49.010;8.608;2022-09-27T10:46:25;13.20;99.90
23550;DHT22;11953;49.010;8.608;2022-09-27T10:49:26;13.00;99.90
23550;DHT22;11953;49.010;8.608;2022-09-27T10:52:18;13.00;99.90
23550;DHT22;11953;49.010;8.608;2022-09-27T10:55:21;13.00;99.90
23550;DHT22;11953;49.010;8.608;2022-09-27T10:58:17;12.90;99.90
23550;DHT22;11953;49.010;8.608;2022-09-27T11:01:07;12.50;99.90
23550;DHT22;11953;49.010;8.608;2022-09-27T11:04:18;12.20;99.90
23550;DHT22;11953;49.010;8.608;2022-09-27T11:07:11;12.10;99.90
23550;DHT22;11953;49.010;8.608;2022-09-27T11:09:59;11.90;99.90
23550;DHT22;11953;49.010;8.608;2022-09-27T11:13:05;11.70;99.90
23550;DHT22;11953;49.010;8.608;2022-09-27T11:16:16;11.50;99.90
23550;DHT22;11953;49.010;8.608;2022-09-27T11:19:12;11.40;99.90
23550;DHT22;11953;49.010;8.608;2022-09-27T11:22:10;11.30;99.90
23550;DHT22;11953;49.010;8.608;2022-09-27T11:25:09;11.10;99.90
23550;DHT22;11953;49.010;8.608;2022-09-27T11:28:14;11.00;99.90
23550;DHT22;11953;49.010;8.608;2022-09-27T11:31:13;10.90;99.90
23550;DHT22;11953;49.010;8.608;2022-09-27T11:34:27;10.90;99.90
23550;DHT22;11953;49.010;8.608;2022-09-27T11:37:23;10.80;99.90
23550;DHT22;11953;49.010;8.608;2022-09-27T11:40:21;10.60;99.90
23550;DHT22;11953;49.010;8.608;2022-09-27T11:43:23;10.70;99.90
23550;DHT22;11953;49.010;8.608;2022-09-27T11:46:22;10.70;99.90
23550;DHT22;11953;49.010;8.608;2022-09-27T11:49:36;10.70;99.90
23550;DHT22;11953;49.010;8.608;2022-09-27T11:52:39;10.70;99.90
23550;DHT22;11953;49.010;8.608;2022-09-27T11:55:41;10.70;99.90
23550;DHT22;11953;49.010;8.608;2022-09-27T11:58:39;10.70;99.90
23550;DHT22;11953;49.010;8.608;2022-09-27T12:01:34;10.70;99.90
23550;DHT22;11953;49.010;8.608;2022-09-27T12:04:40;10.60;99.90
23550;DHT22;11953;49.010;8.608;2022-09-27T12:07:38;10.60;99.90
23550;DHT22;11953;49.010;8.608;2022-09-27T12:10:28;11.10;99.90
23550;DHT22;11953;49.010;8.608;2022-09-27T12:13:18;11.40;99.90
23550;DHT22;11953;49.010;8.608;2022-09-27T12:16:11;11.60;99.90
23550;DHT22;11953;49.010;8.608;2022-09-27T12:18:59;11.90;99.90
23550;DHT22;11953;49.010;8.608;2022-09-27T12:22:05;12.20;99.90
23550;DHT22;11953;49.010;8.608;2022-09-27T12:24:57;12.30;99.90
23550;DHT22;11953;49.010;8.608;2022-09-27T12:28:04;12.00;99.90
23550;DHT22;11953;49.010;8.608;2022-09-27T12:30:57;11.80;99.90
23550;DHT22;11953;49.010;8.608;2022-09-27T12:34:14;11.50;99.90
23550;DHT22;11953;49.010;8.608;2022-09-27T12:37:10;11.60;99.90
23550;DHT22;11953;49.010;8.608;2022-09-27T12:40:02;11.70;99.90
23550;DHT22;11953;49.010;8.608;2022-09-27T12:42:56;11.90;99.90
23550;DHT22;11953;49.010;8.608;2022-09-27T12:46:11;12.20;99.90
23550;DHT22;11953;49.010;8.608;2022-09-27T12:49:05;12.10;99.90
23550;DHT22;11953;49.010;8.608;2022-09-27T12:51:59;11.90;99.90
23550;DHT22;11953;49.010;8.608;2022-09-27T12:54:58;11.90;99.90
23550;DHT22;11953;49.010;8.608;2022-09-27T12:58:11;11.80;99.90
23550;DHT22;11953;49.010;8.608;2022-09-27T13:01:11;11.90;99.90
23550;DHT22;11953;49.010;8.608;2022-09-27T13:04:17;12.10;99.90
23550;DHT22;11953;49.010;8.608;2022-09-27T13:07:19;12.30;99.90
23550;DHT22;11953;49.010;8.608;2022-09-27T13:10:15;12.50;99.90
23550;DHT22;11953;49.010;8.608;2022-09-27T13:13:10;12.70;99.90
23550;DHT22;11953;49.010;8.608;2022-09-27T13:15:59;12.80;99.90
23550;DHT22;11953;49.010;8.608;2022-09-27T13:18:55;12.70;99.90
23550;DHT22;11953;49.010;8.608;2022-09-27T13:21:54;12.50;99.90
23550;DHT22;11953;49.010;8.608;2022-09-27T13:24:53;12.60;99.90
23550;DHT22;11953;49.010;8.608;2022-09-27T13:28:07;12.60;99.90
23550;DHT22;11953;49.010;8.608;2022-09-27T13:31:13;12.50;99.90
23550;DHT22;11953;49.010;8.608;2022-09-27T13:34:36;12.60;99.90
23550;DHT22;11953;49.010;8.608;2022-09-27T13:40:47;12.60;99.90
23550;DHT22;11953;49.010;8.608;2022-09-27T13:43:48;12.70;99.90
23550;DHT22;11953;49.010;8.608;2022-09-27T13:46:57;12.70;99.90
23550;DHT22;11953;49.010;8.608;2022-09-27T13:49:49;12.90;99.90
23550;DHT22;11953;49.010;8.608;2022-09-27T13:53:01;12.80;99.90
23550;DHT22;11953;49.010;8.608;2022-09-27T13:55:53;12.90;99.90
23550;DHT22;11953;49.010;8.608;2022-09-27T13:58:55;12.90;99.90
23550;DHT22;11953;49.010;8.608;2022-09-27T14:02:13;12.90;99.90
23550;DHT22;11953;49.010;8.608;2022-09-27T14:05:06;12.80;99.90
23550;DHT22;11953;49.010;8.608;2022-09-27T14:07:55;12.60;99.90
23550;DHT22;11953;49.010;8.608;2022-09-27T14:10:44;12.60;99.90
23550;DHT22;11953;49.010;8.608;2022-09-27T14:13:33;12.40;99.90
23550;DHT22;11953;49.010;8.608;2022-09-27T14:16:27;12.40;99.90
23550;DHT22;11953;49.010;8.608;2022-09-27T14:19:18;12.20;99.90
23550;DHT22;11953;49.010;8.608;2022-09-27T14:22:10;12.10;99.90
23550;DHT22;11953;49.010;8.608;2022-09-27T14:25:16;12.20;99.90
23550;DHT22;11953;49.010;8.608;2022-09-27T14:28:18;12.30;99.90
23550;DHT22;11953;49.010;8.608;2022-09-27T14:31:36;12.40;99.90
23550;DHT22;11953;49.010;8.608;2022-09-27T14:34:33;12.50;99.90
23550;DHT22;11953;49.010;8.608;2022-09-27T14:37:23;12.60;99.90
23550;DHT22;11953;49.010;8.608;2022-09-27T14:40:19;12.90;99.90
23550;DHT22;11953;49.010;8.608;2022-09-27T14:43:12;12.90;99.90
23550;DHT22;11953;49.010;8.608;2022-09-27T14:46:02;12.90;99.90
23550;DHT22;11953;49.010;8.608;2022-09-27T14:48:52;12.70;99.90
23550;DHT22;11953;49.010;8.608;2022-09-27T14:51:39;12.50;99.90
23550;DHT22;11953;49.010;8.608;2022-09-27T14:54:27;12.60;99.90
23550;DHT22;11953;49.010;8.608;2022-09-27T14:57:15;12.60;99.90
23550;DHT22;11953;49.010;8.608;2022-09-27T15:00:13;12.50;99.90
23550;DHT22;11953;49.010;8.608;2022-09-27T15:03:04;12.60;99.90
23550;DHT22;11953;49.010;8.608;2022-09-27T15:05:55;12.50;99.90
23550;DHT22;11953;49.010;8.608;2022-09-27T15:08:43;12.50;99.90
23550;DHT22;11953;49.010;8.608;2022-09-27T15:11:33;12.60;99.90
23550;DHT22;11953;49.010;8.608;2022-09-27T15:14:23;12.80;99.90
23550;DHT22;11953;49.010;8.608;2022-09-27T15:17:15;12.90;99.90
23550;DHT22;11953;49.010;8.608;2022-09-27T15:20:18;12.90;99.90
23550;DHT22;11953;49.010;8.608;2022-09-27T15:23:25;12.90;99.90
23550;DHT22;11953;49.010;8.608;2022-09-27T15:26:14;12.70;99.90
23550;DHT22;11953;49.010;8.608;2022-09-27T15:29:02;12.60;99.90
23550;DHT22;11953;49.010;8.608;2022-09-27T15:31:57;12.50;99.90
23550;DHT22;11953;49.010;8.608;2022-09-27T15:34:45;12.40;99.90
23550;DHT22;11953;49.010;8.608;2022-09-27T15:37:34;12.50;99.90
23550;DHT22;11953;49.010;8.608;2022-09-27T15:41:02;12.40;99.90
23550;DHT22;11953;49.010;8.608;2022-09-27T15:43:50;12.40;99.90
23550;DHT22;11953;49.010;8.608;2022-09-27T15:46:39;12.40;99.90
23550;DHT22;11953;49.010;8.608;2022-09-27T15:49:28;12.40;99.90
23550;DHT22;11953;49.010;8.608;2022-09-27T15:52:39;12.40;99.90
23550;DHT22;11953;49.010;8.608;2022-09-27T15:55:28;12.40;99.90
23550;DHT22;11953;49.010;8.608;2022-09-27T15:58:19;12.40;99.90
23550;DHT22;11953;49.010;8.608;2022-09-27T16:01:06;12.50;99.90
23550;DHT22;11953;49.010;8.608;2022-09-27T16:03:54;12.50;99.90
23550;DHT22;11953;49.010;8.608;2022-09-27T16:06:43;12.40;99.90
23550;DHT22;11953;49.010;8.608;2022-09-27T16:09:29;12.30;99.90
23550;DHT22;11953;49.010;8.608;2022-09-27T16:12:16;12.20;99.90
23550;DHT22;11953;49.010;8.608;2022-09-27T16:15:05;12.00;99.90
23550;DHT22;11953;49.010;8.608;2022-09-27T16:17:51;12.00;99.90
23550;DHT22;11953;49.010;8.608;2022-09-27T16:20:39;12.00;99.90
23550;DHT22;11953;49.010;8.608;2022-09-27T16:23:26;11.90;99.90
23550;DHT22;11953;49.010;8.608;2022-09-27T16:26:12;11.90;99.90
23550;DHT22;11953;49.010;8.608;2022-09-27T16:28:59;11.90;99.90
23550;DHT22;11953;49.010;8.608;2022-09-27T16:31:47;11.80;99.90
23550;DHT22;11953;49.010;8.608;2022-09-27T16:34:34;11.80;99.90
23550;DHT22;11953;49.010;8.608;2022-09-27T16:37:21;11.80;99.90
23550;DHT22;11953;49.010;8.608;2022-09-27T16:40:08;11.70;99.90
23550;DHT22;11953;49.010;8.608;2022-09-27T16:42:55;11.80;99.90
23550;DHT22;11953;49.010;8.608;2022-09-27T16:45:42;11.70;99.90
23550;DHT22;11953;49.010;8.608;2022-09-27T16:48:30;11.70;99.90
23550;DHT22;11953;49.010;8.608;2022-09-27T16:51:18;11.70;99.90
23550;DHT22;11953;49.010;8.608;2022-09-27T16:54:22;11.70;99.90
23550;DHT22;11953;49.010;8.608;2022-09-27T16:57:09;11.70;99.90
23550;DHT22;11953;49.010;8.608;2022-09-27T16:59:56;11.70;99.90
23550;DHT22;11953;49.010;8.608;2022-09-27T17:02:43;11.70;99.90
23550;DHT22;11953;49.010;8.608;2022-09-27T17:05:32;11.70;99.90
23550;DHT22;11953;49.010;8.608;2022-09-27T17:08:19;11.60;99.90
23550;DHT22;11953;49.010;8.608;2022-09-27T17:11:06;11.50;99.90
23550;DHT22;11953;49.010;8.608;2022-09-27T17:13:53;11.50;99.90
23550;DHT22;11953;49.010;8.608;2022-09-27T17:16:40;11.50;99.90
23550;DHT22;11953;49.010;8.608;2022-09-27T17:19:27;11.50;99.90
23550;DHT22;11953;49.010;8.608;2022-09-27T17:22:14;11.40;99.90
23550;DHT22;11953;49.010;8.608;2022-09-27T17:25:01;11.40;99.90
23550;DHT22;11953;49.010;8.608;2022-09-27T17:27:47;11.40;99.90
23550;DHT22;11953;49.010;8.608;2022-09-27T17:30:34;11.40;99.90
23550;DHT22;11953;49.010;8.608;2022-09-27T17:33:20;11.40;99.90
23550;DHT22;11953;49.010;8.608;2022-09-27T17:36:07;11.30;99.90
23550;DHT22;11953;49.010;8.608;2022-09-27T17:38:56;11.40;99.90
23550;DHT22;11953;49.010;8.608;2022-09-27T17:41:43;11.40;99.90
23550;DHT22;11953;49.010;8.608;2022-09-27T17:44:30;11.20;99.90
23550;DHT22;11953;49.010;8.608;2022-09-27T17:47:16;11.20;99.90
23550;DHT22;11953;49.010;8.608;2022-09-27T17:50:20;11.10;99.90
23550;DHT22;11953;49.010;8.608;2022-09-27T17:53:09;11.00;99.90
23550;DHT22;11953;49.010;8.608;2022-09-27T17:56:01;11.00;99.90
23550;DHT22;11953;49.010;8.608;2022-09-27T17:58:48;10.90;99.90
23550;DHT22;11953;49.010;8.608;2022-09-27T18:01:36;10.90;99.90
23550;DHT22;11953;49.010;8.608;2022-09-27T18:04:23;10.90;99.90
23550;DHT22;11953;49.010;8.608;2022-09-27T18:07:09;10.90;99.90
23550;DHT22;11953;49.010;8.608;2022-09-27T18:09:57;10.90;99.90
23550;DHT22;11953;49.010;8.608;2022-09-27T18:12:45;10.90;99.90
23550;DHT22;11953;49.010;8.608;2022-09-27T18:15:31;10.90;99.90
23550;DHT22;11953;49.010;8.608;2022-09-27T18:18:21;10.90;99.90
23550;DHT22;11953;49.010;8.608;2022-09-27T18:21:09;10.80;99.90
23550;DHT22;11953;49.010;8.608;2022-09-27T18:23:58;10.80;99.90